sensor_id;sensor_type;location;lat;lon;timestamp;temperature;humidity
75927;DHT22;64605;48.296;16.416;2023-02-11T00:01:15;4.60;47.40
75927;DHT22;64605;48.296;16.416;2023-02-11T00:03:42;4.60;47.40
75927;DHT22;64605;48.296;16.416;2023-02-11T00:06:09;4.60;47.40
75927;DHT22;64605;48.296;16.416;2023-02-11T00:08:35;4.60;47.30
75927;DHT22;64605;48.296;16.416;2023-02-11T00:11:01;4.60;47.30
75927;DHT22;64605;48.296;16.416;2023-02-11T00:13:26;4.50;47.30
75927;DHT22;64605;48.296;16.416;2023-02-11T00:15:53;4.50;47.50
75927;DHT22;64605;48.296;16.416;2023-02-11T00:18:19;4.50;47.50
75927;DHT22;64605;48.296;16.416;2023-02-11T00:20:45;4.50;47.50
75927;DHT22;64605;48.296;16.416;2023-02-11T00:23:10;4.40;47.50
75927;DHT22;64605;48.296;16.416;2023-02-11T00:25:43;4.40;47.60
75927;DHT22;64605;48.296;16.416;2023-02-11T00:28:10;4.40;47.60
75927;DHT22;64605;48.296;16.416;2023-02-11T00:30:36;4.40;47.80
75927;DHT22;64605;48.296;16.416;2023-02-11T00:33:02;4.40;47.90
75927;DHT22;64605;48.296;16.416;2023-02-11T00:35:28;4.40;47.90
75927;DHT22;64605;48.296;16.416;2023-02-11T00:37:55;4.30;47.80
75927;DHT22;64605;48.296;16.416;2023-02-11T00:40:21;4.30;48.00
75927;DHT22;64605;48.296;16.416;2023-02-11T00:42:46;4.30;47.90
75927;DHT22;64605;48.296;16.416;2023-02-11T00:45:12;4.30;47.90
75927;DHT22;64605;48.296;16.416;2023-02-11T00:47:38;4.30;48.00
75927;DHT22;64605;48.296;16.416;2023-02-11T00:50:05;4.30;48.10
75927;DHT22;64605;48.296;16.416;2023-02-11T00:52:31;4.30;48.20
75927;DHT22;64605;48.296;16.416;2023-02-11T00:54:57;4.30;48.40
75927;DHT22;64605;48.296;16.416;2023-02-11T00:57:23;4.30;48.30
75927;DHT22;64605;48.296;16.416;2023-02-11T00:59:48;4.30;48.40
75927;DHT22;64605;48.296;16.416;2023-02-11T01:02:15;4.30;48.20
75927;DHT22;64605;48.296;16.416;2023-02-11T01:04:41;4.30;48.50
75927;DHT22;64605;48.296;16.416;2023-02-11T01:07:07;4.30;48.50
75927;DHT22;64605;48.296;16.416;2023-02-11T01:09:33;4.30;48.30
75927;DHT22;64605;48.296;16.416;2023-02-11T01:11:58;4.30;48.40
75927;DHT22;64605;48.296;16.416;2023-02-11T01:14:24;4.20;48.40
75927;DHT22;64605;48.296;16.416;2023-02-11T01:16:49;4.20;48.20
75927;DHT22;64605;48.296;16.416;2023-02-11T01:19:15;4.20;48.40
75927;DHT22;64605;48.296;16.416;2023-02-11T01:21:41;4.20;48.30
75927;DHT22;64605;48.296;16.416;2023-02-11T01:24:06;4.10;48.20
75927;DHT22;64605;48.296;16.416;2023-02-11T01:26:32;4.10;48.50
75927;DHT22;64605;48.296;16.416;2023-02-11T01:28:58;4.00;48.90
75927;DHT22;64605;48.296;16.416;2023-02-11T01:31:25;3.90;48.80
75927;DHT22;64605;48.296;16.416;2023-02-11T01:33:51;3.90;49.10
75927;DHT22;64605;48.296;16.416;2023-02-11T01:36:16;3.80;49.30
75927;DHT22;64605;48.296;16.416;2023-02-11T01:38:42;3.80;49.70
75927;DHT22;64605;48.296;16.416;2023-02-11T01:41:11;3.70;49.70
75927;DHT22;64605;48.296;16.416;2023-02-11T01:43:40;3.60;49.70
75927;DHT22;64605;48.296;16.416;2023-02-11T01:48:44;3.60;50.10
75927;DHT22;64605;48.296;16.416;2023-02-11T01:51:23;3.50;50.20
75927;DHT22;64605;48.296;16.416;2023-02-11T01:53:50;3.50;50.20
75927;DHT22;64605;48.296;16.416;2023-02-11T01:56:38;3.50;50.40
75927;DHT22;64605;48.296;16.416;2023-02-11T01:59:36;3.50;51.40
75927;DHT22;64605;48.296;16.416;2023-02-11T02:02:07;3.50;50.40
75927;DHT22;64605;48.296;16.416;2023-02-11T02:04:41;3.50;50.60
75927;DHT22;64605;48.296;16.416;2023-02-11T02:07:13;3.50;50.70
75927;DHT22;64605;48.296;16.416;2023-02-11T02:09:45;3.50;50.80
75927;DHT22;64605;48.296;16.416;2023-02-11T02:12:13;3.50;50.90
75927;DHT22;64605;48.296;16.416;2023-02-11T02:14:40;3.40;51.20
75927;DHT22;64605;48.296;16.416;2023-02-11T02:17:09;3.40;51.10
75927;DHT22;64605;48.296;16.416;2023-02-11T02:19:58;3.40;51.30
75927;DHT22;64605;48.296;16.416;2023-02-11T02:35:53;3.40;51.80
75927;DHT22;64605;48.296;16.416;2023-02-11T02:38:39;3.50;52.00
75927;DHT22;64605;48.296;16.416;2023-02-11T02:41:11;3.50;52.00
75927;DHT22;64605;48.296;16.416;2023-02-11T02:43:43;3.50;52.00
75927;DHT22;64605;48.296;16.416;2023-02-11T02:46:17;3.50;53.00
75927;DHT22;64605;48.296;16.416;2023-02-11T02:48:43;3.50;52.10
75927;DHT22;64605;48.296;16.416;2023-02-11T02:57:00;3.40;52.10
75927;DHT22;64605;48.296;16.416;2023-02-11T03:02:08;3.30;52.50
75927;DHT22;64605;48.296;16.416;2023-02-11T03:04:47;3.30;52.60
75927;DHT22;64605;48.296;16.416;2023-02-11T03:07:42;3.30;52.30
75927;DHT22;64605;48.296;16.416;2023-02-11T03:10:18;3.20;52.50
75927;DHT22;64605;48.296;16.416;2023-02-11T03:12:46;3.20;52.70
75927;DHT22;64605;48.296;16.416;2023-02-11T03:15:13;3.20;52.90
75927;DHT22;64605;48.296;16.416;2023-02-11T03:17:42;3.20;53.10
75927;DHT22;64605;48.296;16.416;2023-02-11T03:20:10;3.20;53.00
75927;DHT22;64605;48.296;16.416;2023-02-11T03:22:48;3.20;53.20
75927;DHT22;64605;48.296;16.416;2023-02-11T03:25:14;3.20;53.40
75927;DHT22;64605;48.296;16.416;2023-02-11T03:27:49;3.20;54.60
75927;DHT22;64605;48.296;16.416;2023-02-11T03:30:36;3.20;53.40
75927;DHT22;64605;48.296;16.416;2023-02-11T03:33:34;3.20;53.70
75927;DHT22;64605;48.296;16.416;2023-02-11T03:35:59;3.20;53.60
75927;DHT22;64605;48.296;16.416;2023-02-11T03:38:34;3.20;53.90
75927;DHT22;64605;48.296;16.416;2023-02-11T03:41:03;3.30;54.10
75927;DHT22;64605;48.296;16.416;2023-02-11T03:43:35;3.30;54.10
75927;DHT22;64605;48.296;16.416;2023-02-11T03:46:02;3.40;54.20
75927;DHT22;64605;48.296;16.416;2023-02-11T03:48:40;3.40;54.10
75927;DHT22;64605;48.296;16.416;2023-02-11T03:51:10;3.50;54.10
75927;DHT22;64605;48.296;16.416;2023-02-11T03:53:38;3.50;54.00
75927;DHT22;64605;48.296;16.416;2023-02-11T03:56:09;3.50;54.00
75927;DHT22;64605;48.296;16.416;2023-02-11T03:58:36;3.50;54.00
75927;DHT22;64605;48.296;16.416;2023-02-11T04:01:01;3.50;54.00
75927;DHT22;64605;48.296;16.416;2023-02-11T04:03:28;3.50;54.00
75927;DHT22;64605;48.296;16.416;2023-02-11T04:05:54;3.50;54.10
75927;DHT22;64605;48.296;16.416;2023-02-11T04:08:20;3.50;54.00
75927;DHT22;64605;48.296;16.416;2023-02-11T04:10:45;3.50;53.90
75927;DHT22;64605;48.296;16.416;2023-02-11T04:13:11;3.50;54.10
75927;DHT22;64605;48.296;16.416;2023-02-11T04:15:37;3.40;54.00
75927;DHT22;64605;48.296;16.416;2023-02-11T04:18:03;3.40;54.00
75927;DHT22;64605;48.296;16.416;2023-02-11T04:20:29;3.30;54.10
75927;DHT22;64605;48.296;16.416;2023-02-11T04:22:55;3.30;54.20
75927;DHT22;64605;48.296;16.416;2023-02-11T04:25:20;3.30;54.10
75927;DHT22;64605;48.296;16.416;2023-02-11T04:27:46;3.30;54.40
75927;DHT22;64605;48.296;16.416;2023-02-11T04:30:12;3.20;54.40
75927;DHT22;64605;48.296;16.416;2023-02-11T04:32:38;3.10;54.50
75927;DHT22;64605;48.296;16.416;2023-02-11T04:35:04;3.10;54.70
75927;DHT22;64605;48.296;16.416;2023-02-11T04:37:30;3.10;55.10
75927;DHT22;64605;48.296;16.416;2023-02-11T04:39:55;3.10;54.90
75927;DHT22;64605;48.296;16.416;2023-02-11T04:42:21;3.20;55.30
75927;DHT22;64605;48.296;16.416;2023-02-11T04:44:47;3.20;55.20
75927;DHT22;64605;48.296;16.416;2023-02-11T04:47:13;3.30;55.20
75927;DHT22;64605;48.296;16.416;2023-02-11T04:49:40;3.30;55.20
75927;DHT22;64605;48.296;16.416;2023-02-11T04:52:06;3.40;55.30
75927;DHT22;64605;48.296;16.416;2023-02-11T04:54:31;3.50;55.40
75927;DHT22;64605;48.296;16.416;2023-02-11T04:56:57;3.60;55.40
75927;DHT22;64605;48.296;16.416;2023-02-11T04:59:23;3.70;55.20
75927;DHT22;64605;48.296;16.416;2023-02-11T05:01:48;3.80;55.30
75927;DHT22;64605;48.296;16.416;2023-02-11T05:04:15;3.90;55.10
75927;DHT22;64605;48.296;16.416;2023-02-11T05:06:40;4.00;55.10
75927;DHT22;64605;48.296;16.416;2023-02-11T05:09:06;4.20;55.00
75927;DHT22;64605;48.296;16.416;2023-02-11T05:11:32;4.30;54.70
75927;DHT22;64605;48.296;16.416;2023-02-11T05:13:57;4.40;54.50
75927;DHT22;64605;48.296;16.416;2023-02-11T05:16:23;4.50;54.30
75927;DHT22;64605;48.296;16.416;2023-02-11T05:18:49;4.60;54.10
75927;DHT22;64605;48.296;16.416;2023-02-11T05:21:16;4.70;54.00
75927;DHT22;64605;48.296;16.416;2023-02-11T05:23:43;4.80;53.80
75927;DHT22;64605;48.296;16.416;2023-02-11T05:26:09;4.80;53.70
75927;DHT22;64605;48.296;16.416;2023-02-11T05:28:35;4.90;53.60
75927;DHT22;64605;48.296;16.416;2023-02-11T05:31:01;5.00;53.40
75927;DHT22;64605;48.296;16.416;2023-02-11T05:33:27;5.00;53.10
75927;DHT22;64605;48.296;16.416;2023-02-11T05:36:01;5.10;53.10
75927;DHT22;64605;48.296;16.416;2023-02-11T05:38:27;5.10;52.90
75927;DHT22;64605;48.296;16.416;2023-02-11T05:40:52;5.10;52.90
75927;DHT22;64605;48.296;16.416;2023-02-11T05:43:18;5.10;52.70
75927;DHT22;64605;48.296;16.416;2023-02-11T05:45:44;5.10;52.70
75927;DHT22;64605;48.296;16.416;2023-02-11T05:48:09;5.10;52.60
75927;DHT22;64605;48.296;16.416;2023-02-11T05:50:35;5.10;52.60
75927;DHT22;64605;48.296;16.416;2023-02-11T05:53:01;5.10;52.50
75927;DHT22;64605;48.296;16.416;2023-02-11T05:55:26;5.10;52.40
75927;DHT22;64605;48.296;16.416;2023-02-11T05:57:52;5.10;52.40
75927;DHT22;64605;48.296;16.416;2023-02-11T06:00:18;5.10;52.30
75927;DHT22;64605;48.296;16.416;2023-02-11T06:02:43;5.10;52.30
75927;DHT22;64605;48.296;16.416;2023-02-11T06:05:09;5.10;52.10
75927;DHT22;64605;48.296;16.416;2023-02-11T06:07:34;5.10;52.10
75927;DHT22;64605;48.296;16.416;2023-02-11T06:10:00;5.20;52.10
75927;DHT22;64605;48.296;16.416;2023-02-11T06:12:26;5.20;51.70
75927;DHT22;64605;48.296;16.416;2023-02-11T06:14:52;5.20;51.60
75927;DHT22;64605;48.296;16.416;2023-02-11T06:17:17;5.30;51.40
75927;DHT22;64605;48.296;16.416;2023-02-11T06:19:43;5.30;51.00
75927;DHT22;64605;48.296;16.416;2023-02-11T06:22:09;5.30;50.90
75927;DHT22;64605;48.296;16.416;2023-02-11T06:24:34;5.30;50.80
75927;DHT22;64605;48.296;16.416;2023-02-11T06:27:02;5.40;50.70
75927;DHT22;64605;48.296;16.416;2023-02-11T06:29:28;5.40;50.60
75927;DHT22;64605;48.296;16.416;2023-02-11T06:31:53;5.40;50.60
75927;DHT22;64605;48.296;16.416;2023-02-11T06:34:19;5.50;50.60
75927;DHT22;64605;48.296;16.416;2023-02-11T06:36:45;5.60;50.30
75927;DHT22;64605;48.296;16.416;2023-02-11T06:39:12;5.60;50.10
75927;DHT22;64605;48.296;16.416;2023-02-11T06:41:38;5.60;49.90
75927;DHT22;64605;48.296;16.416;2023-02-11T06:44:03;5.70;49.70
75927;DHT22;64605;48.296;16.416;2023-02-11T06:46:29;5.80;49.70
75927;DHT22;64605;48.296;16.416;2023-02-11T06:48:55;5.90;49.60
75927;DHT22;64605;48.296;16.416;2023-02-11T06:51:21;6.10;49.30
75927;DHT22;64605;48.296;16.416;2023-02-11T06:53:47;6.30;49.00
75927;DHT22;64605;48.296;16.416;2023-02-11T06:56:18;6.50;48.70
75927;DHT22;64605;48.296;16.416;2023-02-11T06:58:44;6.60;48.20
75927;DHT22;64605;48.296;16.416;2023-02-11T07:01:13;6.70;47.80
75927;DHT22;64605;48.296;16.416;2023-02-11T07:03:41;6.80;47.60
75927;DHT22;64605;48.296;16.416;2023-02-11T07:06:11;6.90;47.50
75927;DHT22;64605;48.296;16.416;2023-02-11T07:08:37;7.00;47.40
75927;DHT22;64605;48.296;16.416;2023-02-11T07:11:15;7.10;47.10
75927;DHT22;64605;48.296;16.416;2023-02-11T07:13:42;7.30;47.10
75927;DHT22;64605;48.296;16.416;2023-02-11T07:16:10;7.50;46.80
75927;DHT22;64605;48.296;16.416;2023-02-11T07:18:36;7.70;46.50
75927;DHT22;64605;48.296;16.416;2023-02-11T07:21:07;7.90;45.80
75927;DHT22;64605;48.296;16.416;2023-02-11T07:23:33;8.20;45.50
75927;DHT22;64605;48.296;16.416;2023-02-11T07:26:08;8.50;44.80
75927;DHT22;64605;48.296;16.416;2023-02-11T07:28:35;8.70;44.50
75927;DHT22;64605;48.296;16.416;2023-02-11T07:31:24;8.80;43.50
75927;DHT22;64605;48.296;16.416;2023-02-11T07:33:55;8.90;43.30
75927;DHT22;64605;48.296;16.416;2023-02-11T07:36:21;8.90;42.10
75927;DHT22;64605;48.296;16.416;2023-02-11T07:38:48;8.90;42.10
75927;DHT22;64605;48.296;16.416;2023-02-11T07:41:16;9.00;42.60
75927;DHT22;64605;48.296;16.416;2023-02-11T07:43:43;9.20;42.40
75927;DHT22;64605;48.296;16.416;2023-02-11T07:46:14;9.30;41.90
75927;DHT22;64605;48.296;16.416;2023-02-11T07:48:40;9.50;41.40
75927;DHT22;64605;48.296;16.416;2023-02-11T07:51:07;9.70;41.10
75927;DHT22;64605;48.296;16.416;2023-02-11T07:53:32;9.70;40.80
75927;DHT22;64605;48.296;16.416;2023-02-11T07:55:58;9.70;41.80
75927;DHT22;64605;48.296;16.416;2023-02-11T07:58:24;9.70;40.60
75927;DHT22;64605;48.296;16.416;2023-02-11T08:00:49;9.70;40.40
75927;DHT22;64605;48.296;16.416;2023-02-11T08:03:15;9.70;40.30
75927;DHT22;64605;48.296;16.416;2023-02-11T08:05:40;9.60;40.10
75927;DHT22;64605;48.296;16.416;2023-02-11T08:08:06;9.60;39.60
75927;DHT22;64605;48.296;16.416;2023-02-11T08:10:32;9.60;39.60
75927;DHT22;64605;48.296;16.416;2023-02-11T08:12:57;9.60;39.50
75927;DHT22;64605;48.296;16.416;2023-02-11T08:15:23;9.60;39.60
75927;DHT22;64605;48.296;16.416;2023-02-11T08:17:49;9.70;39.60
75927;DHT22;64605;48.296;16.416;2023-02-11T08:20:14;9.70;38.80
75927;DHT22;64605;48.296;16.416;2023-02-11T08:22:40;9.60;38.40
75927;DHT22;64605;48.296;16.416;2023-02-11T08:25:06;9.70;39.00
75927;DHT22;64605;48.296;16.416;2023-02-11T08:27:32;9.80;38.50
75927;DHT22;64605;48.296;16.416;2023-02-11T08:29:58;9.80;38.10
75927;DHT22;64605;48.296;16.416;2023-02-11T08:32:24;9.80;38.10
75927;DHT22;64605;48.296;16.416;2023-02-11T08:34:51;9.80;37.80
75927;DHT22;64605;48.296;16.416;2023-02-11T08:37:17;9.80;38.10
75927;DHT22;64605;48.296;16.416;2023-02-11T08:39:43;9.90;37.80
75927;DHT22;64605;48.296;16.416;2023-02-11T08:42:09;9.90;38.20
75927;DHT22;64605;48.296;16.416;2023-02-11T08:44:34;10.10;38.20
75927;DHT22;64605;48.296;16.416;2023-02-11T08:47:00;11.20;37.70
75927;DHT22;64605;48.296;16.416;2023-02-11T08:49:25;11.60;35.50
75927;DHT22;64605;48.296;16.416;2023-02-11T08:51:51;11.60;34.70
75927;DHT22;64605;48.296;16.416;2023-02-11T08:54:18;11.60;35.10
75927;DHT22;64605;48.296;16.416;2023-02-11T08:56:44;11.50;34.90
75927;DHT22;64605;48.296;16.416;2023-02-11T08:59:12;11.40;35.00
75927;DHT22;64605;48.296;16.416;2023-02-11T09:01:39;11.30;35.50
75927;DHT22;64605;48.296;16.416;2023-02-11T09:04:04;11.40;35.50
75927;DHT22;64605;48.296;16.416;2023-02-11T09:06:30;11.40;35.20
75927;DHT22;64605;48.296;16.416;2023-02-11T09:08:57;11.40;35.20
75927;DHT22;64605;48.296;16.416;2023-02-11T09:11:34;11.60;35.20
75927;DHT22;64605;48.296;16.416;2023-02-11T09:14:01;11.60;34.90
75927;DHT22;64605;48.296;16.416;2023-02-11T09:16:29;11.80;34.50
75927;DHT22;64605;48.296;16.416;2023-02-11T09:18:56;11.90;34.40
75927;DHT22;64605;48.296;16.416;2023-02-11T09:21:22;12.20;34.10
75927;DHT22;64605;48.296;16.416;2023-02-11T09:23:48;12.60;34.60
75927;DHT22;64605;48.296;16.416;2023-02-11T09:26:25;12.90;33.20
75927;DHT22;64605;48.296;16.416;2023-02-11T09:28:51;13.10;32.60
75927;DHT22;64605;48.296;16.416;2023-02-11T09:31:23;13.20;32.00
75927;DHT22;64605;48.296;16.416;2023-02-11T09:33:51;13.00;31.60
75927;DHT22;64605;48.296;16.416;2023-02-11T09:36:22;12.80;32.10
75927;DHT22;64605;48.296;16.416;2023-02-11T09:38:48;12.60;32.60
75927;DHT22;64605;48.296;16.416;2023-02-11T09:43:51;12.20;33.20
75927;DHT22;64605;48.296;16.416;2023-02-11T09:46:18;12.00;33.60
75927;DHT22;64605;48.296;16.416;2023-02-11T09:48:46;11.90;33.80
75927;DHT22;64605;48.296;16.416;2023-02-11T09:51:29;11.80;33.90
75927;DHT22;64605;48.296;16.416;2023-02-11T09:54:02;11.70;33.80
75927;DHT22;64605;48.296;16.416;2023-02-11T09:56:30;11.70;34.20
75927;DHT22;64605;48.296;16.416;2023-02-11T09:58:55;11.80;34.30
75927;DHT22;64605;48.296;16.416;2023-02-11T10:01:38;12.10;34.60
75927;DHT22;64605;48.296;16.416;2023-02-11T10:04:38;12.40;33.90
75927;DHT22;64605;48.296;16.416;2023-02-11T10:07:20;12.90;33.80
75927;DHT22;64605;48.296;16.416;2023-02-11T10:10:12;13.30;32.90
75927;DHT22;64605;48.296;16.416;2023-02-11T10:12:59;13.60;32.40
75927;DHT22;64605;48.296;16.416;2023-02-11T10:23:49;13.20;32.50
75927;DHT22;64605;48.296;16.416;2023-02-11T10:26:17;13.10;32.70
75927;DHT22;64605;48.296;16.416;2023-02-11T10:28:45;13.20;32.80
75927;DHT22;64605;48.296;16.416;2023-02-11T10:34:06;13.70;31.80
75927;DHT22;64605;48.296;16.416;2023-02-11T10:36:34;14.10;31.40
75927;DHT22;64605;48.296;16.416;2023-02-11T10:41:41;14.60;30.40
75927;DHT22;64605;48.296;16.416;2023-02-11T10:44:22;14.90;30.40
75927;DHT22;64605;48.296;16.416;2023-02-11T10:46:49;15.10;29.90
75927;DHT22;64605;48.296;16.416;2023-02-11T10:49:41;15.30;29.50
75927;DHT22;64605;48.296;16.416;2023-02-11T10:57:20;15.50;28.80
75927;DHT22;64605;48.296;16.416;2023-02-11T10:59:46;15.30;29.00
75927;DHT22;64605;48.296;16.416;2023-02-11T11:02:23;15.80;29.50
75927;DHT22;64605;48.296;16.416;2023-02-11T11:04:54;16.90;28.50
75927;DHT22;64605;48.296;16.416;2023-02-11T11:07:31;17.40;27.20
75927;DHT22;64605;48.296;16.416;2023-02-11T11:10:10;17.50;27.00
75927;DHT22;64605;48.296;16.416;2023-02-11T11:12:49;17.40;26.80
75927;DHT22;64605;48.296;16.416;2023-02-11T11:15:30;17.20;27.10
75927;DHT22;64605;48.296;16.416;2023-02-11T11:18:13;17.10;27.00
75927;DHT22;64605;48.296;16.416;2023-02-11T11:20:53;16.70;26.80
75927;DHT22;64605;48.296;16.416;2023-02-11T11:23:21;16.60;27.30
75927;DHT22;64605;48.296;16.416;2023-02-11T11:26:02;16.30;27.40
75927;DHT22;64605;48.296;16.416;2023-02-11T11:28:30;16.10;27.40
75927;DHT22;64605;48.296;16.416;2023-02-11T11:30:58;15.90;27.70
75927;DHT22;64605;48.296;16.416;2023-02-11T11:33:28;15.70;27.70
75927;DHT22;64605;48.296;16.416;2023-02-11T11:36:06;15.50;28.20
75927;DHT22;64605;48.296;16.416;2023-02-11T11:41:25;15.10;28.50
75927;DHT22;64605;48.296;16.416;2023-02-11T11:44:01;14.90;28.80
75927;DHT22;64605;48.296;16.416;2023-02-11T11:46:39;14.80;28.70
75927;DHT22;64605;48.296;16.416;2023-02-11T11:49:27;14.90;29.00
75927;DHT22;64605;48.296;16.416;2023-02-11T11:54:45;15.10;28.80
75927;DHT22;64605;48.296;16.416;2023-02-11T11:57:18;15.00;28.10
75927;DHT22;64605;48.296;16.416;2023-02-11T11:59:46;15.00;28.10
75927;DHT22;64605;48.296;16.416;2023-02-11T12:02:39;15.00;28.40
75927;DHT22;64605;48.296;16.416;2023-02-11T12:10:47;15.00;28.10
75927;DHT22;64605;48.296;16.416;2023-02-11T12:19:24;15.30;28.00
75927;DHT22;64605;48.296;16.416;2023-02-11T12:22:14;15.20;28.00
75927;DHT22;64605;48.296;16.416;2023-02-11T12:28:00;14.90;28.40
75927;DHT22;64605;48.296;16.416;2023-02-11T12:33:25;14.80;29.00
75927;DHT22;64605;48.296;16.416;2023-02-11T12:44:51;13.90;29.80
75927;DHT22;64605;48.296;16.416;2023-02-11T12:50:33;13.70;30.10
75927;DHT22;64605;48.296;16.416;2023-02-11T12:55:33;13.70;30.00
75927;DHT22;64605;48.296;16.416;2023-02-11T12:58:03;13.60;29.90
75927;DHT22;64605;48.296;16.416;2023-02-11T13:00:42;13.60;30.00
75927;DHT22;64605;48.296;16.416;2023-02-11T13:03:21;13.60;29.90
75927;DHT22;64605;48.296;16.416;2023-02-11T13:05:52;13.70;30.20
75927;DHT22;64605;48.296;16.416;2023-02-11T13:11:31;14.20;29.70
75927;DHT22;64605;48.296;16.416;2023-02-11T13:14:29;14.40;29.20
75927;DHT22;64605;48.296;16.416;2023-02-11T13:17:00;14.50;28.80
75927;DHT22;64605;48.296;16.416;2023-02-11T13:19:40;14.40;28.80
75927;DHT22;64605;48.296;16.416;2023-02-11T13:22:16;14.30;28.90
75927;DHT22;64605;48.296;16.416;2023-02-11T13:24:58;14.30;28.90
75927;DHT22;64605;48.296;16.416;2023-02-11T13:27:56;14.30;29.10
75927;DHT22;64605;48.296;16.416;2023-02-11T13:30:25;14.00;29.10
75927;DHT22;64605;48.296;16.416;2023-02-11T13:38:23;13.80;29.90
75927;DHT22;64605;48.296;16.416;2023-02-11T13:41:37;13.70;30.00
75927;DHT22;64605;48.296;16.416;2023-02-11T13:49:24;13.90;30.20
75927;DHT22;64605;48.296;16.416;2023-02-11T13:51:52;14.00;30.00
75927;DHT22;64605;48.296;16.416;2023-02-11T13:54:45;14.00;30.00
75927;DHT22;64605;48.296;16.416;2023-02-11T13:59:59;13.80;30.00
75927;DHT22;64605;48.296;16.416;2023-02-11T14:02:35;13.60;30.30
75927;DHT22;64605;48.296;16.416;2023-02-11T14:05:26;13.40;30.80
75927;DHT22;64605;48.296;16.416;2023-02-11T14:16:21;12.70;32.30
75927;DHT22;64605;48.296;16.416;2023-02-11T14:27:03;12.70;32.90
75927;DHT22;64605;48.296;16.416;2023-02-11T14:29:41;12.70;33.10
75927;DHT22;64605;48.296;16.416;2023-02-11T14:35:09;12.60;33.70
75927;DHT22;64605;48.296;16.416;2023-02-11T14:37:44;12.50;33.50
75927;DHT22;64605;48.296;16.416;2023-02-11T14:40:31;12.50;33.70
75927;DHT22;64605;48.296;16.416;2023-02-11T14:43:15;12.50;33.90
75927;DHT22;64605;48.296;16.416;2023-02-11T14:45:47;12.40;34.00
75927;DHT22;64605;48.296;16.416;2023-02-11T14:48:16;12.30;34.20
75927;DHT22;64605;48.296;16.416;2023-02-11T14:50:43;12.20;34.40
75927;DHT22;64605;48.296;16.416;2023-02-11T14:53:17;12.20;34.40
75927;DHT22;64605;48.296;16.416;2023-02-11T14:55:44;12.10;34.60
75927;DHT22;64605;48.296;16.416;2023-02-11T14:58:23;12.00;34.70
75927;DHT22;64605;48.296;16.416;2023-02-11T15:01:04;12.00;35.10
75927;DHT22;64605;48.296;16.416;2023-02-11T15:06:21;11.80;35.30
75927;DHT22;64605;48.296;16.416;2023-02-11T15:08:51;11.80;35.50
75927;DHT22;64605;48.296;16.416;2023-02-11T15:11:20;11.70;35.50
75927;DHT22;64605;48.296;16.416;2023-02-11T15:13:47;11.70;35.70
75927;DHT22;64605;48.296;16.416;2023-02-11T15:16:17;11.70;35.90
75927;DHT22;64605;48.296;16.416;2023-02-11T15:18:48;11.70;36.20
75927;DHT22;64605;48.296;16.416;2023-02-11T15:21:27;11.70;36.10
75927;DHT22;64605;48.296;16.416;2023-02-11T15:26:26;11.70;36.40
75927;DHT22;64605;48.296;16.416;2023-02-11T15:28:52;11.60;36.40
75927;DHT22;64605;48.296;16.416;2023-02-11T15:31:20;11.70;36.80
75927;DHT22;64605;48.296;16.416;2023-02-11T15:33:47;11.60;36.80
75927;DHT22;64605;48.296;16.416;2023-02-11T15:36:14;11.60;37.00
75927;DHT22;64605;48.296;16.416;2023-02-11T15:38:41;11.50;37.10
75927;DHT22;64605;48.296;16.416;2023-02-11T15:41:07;11.40;37.20
75927;DHT22;64605;48.296;16.416;2023-02-11T15:43:46;11.40;37.40
75927;DHT22;64605;48.296;16.416;2023-02-11T15:46:16;11.30;37.60
75927;DHT22;64605;48.296;16.416;2023-02-11T15:48:53;11.30;37.80
75927;DHT22;64605;48.296;16.416;2023-02-11T15:53:59;11.20;38.10
75927;DHT22;64605;48.296;16.416;2023-02-11T15:56:28;11.10;38.40
75927;DHT22;64605;48.296;16.416;2023-02-11T15:58:57;11.00;38.40
75927;DHT22;64605;48.296;16.416;2023-02-11T16:01:31;11.00;38.70
75927;DHT22;64605;48.296;16.416;2023-02-11T16:03:57;10.90;38.90
75927;DHT22;64605;48.296;16.416;2023-02-11T16:06:25;10.80;39.10
75927;DHT22;64605;48.296;16.416;2023-02-11T16:09:03;10.80;39.30
75927;DHT22;64605;48.296;16.416;2023-02-11T16:11:30;10.70;39.40
75927;DHT22;64605;48.296;16.416;2023-02-11T16:13:57;10.60;39.50
75927;DHT22;64605;48.296;16.416;2023-02-11T16:16:30;10.50;39.80
75927;DHT22;64605;48.296;16.416;2023-02-11T16:18:58;10.40;39.90
75927;DHT22;64605;48.296;16.416;2023-02-11T16:21:33;10.40;40.40
75927;DHT22;64605;48.296;16.416;2023-02-11T16:24:06;10.40;40.60
75927;DHT22;64605;48.296;16.416;2023-02-11T16:26:36;10.30;40.70
75927;DHT22;64605;48.296;16.416;2023-02-11T16:29:25;10.30;40.90
75927;DHT22;64605;48.296;16.416;2023-02-11T16:31:51;10.30;41.00
75927;DHT22;64605;48.296;16.416;2023-02-11T16:34:22;10.30;41.20
75927;DHT22;64605;48.296;16.416;2023-02-11T16:36:49;10.20;41.50
75927;DHT22;64605;48.296;16.416;2023-02-11T16:39:17;10.20;41.60
75927;DHT22;64605;48.296;16.416;2023-02-11T16:41:43;10.10;41.90
75927;DHT22;64605;48.296;16.416;2023-02-11T16:44:09;10.10;42.00
75927;DHT22;64605;48.296;16.416;2023-02-11T16:46:35;10.00;42.10
75927;DHT22;64605;48.296;16.416;2023-02-11T16:49:22;10.00;42.30
75927;DHT22;64605;48.296;16.416;2023-02-11T16:51:50;10.00;42.70
75927;DHT22;64605;48.296;16.416;2023-02-11T16:54:17;9.90;42.90
75927;DHT22;64605;48.296;16.416;2023-02-11T16:56:43;9.90;43.00
75927;DHT22;64605;48.296;16.416;2023-02-11T16:59:10;9.80;43.00
75927;DHT22;64605;48.296;16.416;2023-02-11T17:01:41;9.80;43.20
75927;DHT22;64605;48.296;16.416;2023-02-11T17:04:16;9.80;43.30
75927;DHT22;64605;48.296;16.416;2023-02-11T17:06:42;9.70;43.50
75927;DHT22;64605;48.296;16.416;2023-02-11T17:09:15;9.70;43.70
75927;DHT22;64605;48.296;16.416;2023-02-11T17:11:42;9.60;43.90
75927;DHT22;64605;48.296;16.416;2023-02-11T17:14:07;9.60;44.10
75927;DHT22;64605;48.296;16.416;2023-02-11T17:16:33;9.50;44.20
75927;DHT22;64605;48.296;16.416;2023-02-11T17:18:58;9.50;44.60
75927;DHT22;64605;48.296;16.416;2023-02-11T17:21:24;9.40;44.90
75927;DHT22;64605;48.296;16.416;2023-02-11T17:23:51;9.40;44.80
75927;DHT22;64605;48.296;16.416;2023-02-11T17:26:17;9.30;45.10
75927;DHT22;64605;48.296;16.416;2023-02-11T17:28:42;9.30;45.30
75927;DHT22;64605;48.296;16.416;2023-02-11T17:31:08;9.20;45.40
75927;DHT22;64605;48.296;16.416;2023-02-11T17:33:34;9.10;45.90
75927;DHT22;64605;48.296;16.416;2023-02-11T17:36:06;9.00;45.90
75927;DHT22;64605;48.296;16.416;2023-02-11T17:38:32;9.00;46.20
75927;DHT22;64605;48.296;16.416;2023-02-11T17:40:59;9.00;46.30
75927;DHT22;64605;48.296;16.416;2023-02-11T17:43:25;9.00;46.40
75927;DHT22;64605;48.296;16.416;2023-02-11T17:45:51;8.90;46.50
75927;DHT22;64605;48.296;16.416;2023-02-11T17:48:17;8.90;46.80
75927;DHT22;64605;48.296;16.416;2023-02-11T17:50:42;9.00;46.80